Главная страница
METAR-TAF:

METAR-TAF

Аэропорты :

Ekati, Северо-Западные Территории, Канада

широта: 64-42N, долгота: 110-37W, высота над уровнем моря: 469 м

Текущие метеонаблюдения

Эта сводка был подготовлена 24 минут назад, в 12:00 UTC
Ветер 22 Узел от юго-юго-восточный
Температура -7°C
Влажность 93%
Давление 1003 hPa
Видимость: 1.2 км
небольшой снег, низовая метель

METAR: CYOA 201200Z 15022KT 3/4SM -SN BLSN VV002 M07/M08 A2962

Время: 06:24 (12:24 UTC)

Прогноз

Эта сводка был подготовлена 17 часа и 46 минут назад, в 18:38 UTC
Прогноз действительный с 19-го 19 UTC до 19-го 23 UTC
Ветер 10 Узел от северо-западный
Видимость: 10 км
Сплошная облачность на высоте 2500 фута
временами
С 19-го 19 UTC до 19-го 23 UTC
небольшая облачность на высоте 800 фута
Сплошная облачность на высоте 2000 фута

TAF: CYOA 191838Z 1919/1923 32010KT P6SM OVC025 TEMPO 1919/1923 FEW008 OVC020 RMK NXT FCST WILL BE ISSUED AT 201245Z

Метеонаблюдения и прогнозы для более 4000 аэропортов (сводки METAR и TAF).

Имеющиеся станции представлены на карте желтыми и красными точками.

Чтобы увидеть название станции, наведите на нее мышь.

Затем щелкните, чтобы увидеть метеонаблюдения и метеопрогнозы.

Управление картой: чтобы увеличить масштаб, щелкните зеленые кнопки с черным крестиком; чтобы уменьшить масштаб, щелкните зеленую кнопку с тире; для просмотра соседних карт щелкайте зеленые стрелки.


METAR-TAF: